sensor_id;sensor_type;location;lat;lon;timestamp;temperature;humidity
78455;SHT31;67751;51.986;5.696;2023-07-13T00:01:45;19.4;64.2
78455;SHT31;67751;51.986;5.696;2023-07-13T00:04:18;19.4;64.3
78455;SHT31;67751;51.986;5.696;2023-07-13T00:06:48;19.4;64.0
78455;SHT31;67751;51.986;5.696;2023-07-13T00:09:20;19.4;63.8
78455;SHT31;67751;51.986;5.696;2023-07-13T00:11:58;19.4;63.6
78455;SHT31;67751;51.986;5.696;2023-07-13T00:14:31;19.4;63.6
78455;SHT31;67751;51.986;5.696;2023-07-13T00:17:03;19.4;63.8
78455;SHT31;67751;51.986;5.696;2023-07-13T00:19:33;19.4;63.5
78455;SHT31;67751;51.986;5.696;2023-07-13T00:22:03;19.4;63.5
78455;SHT31;67751;51.986;5.696;2023-07-13T00:24:33;19.4;63.6
78455;SHT31;67751;51.986;5.696;2023-07-13T00:27:06;19.4;64.3
78455;SHT31;67751;51.986;5.696;2023-07-13T00:29:36;19.4;63.4
78455;SHT31;67751;51.986;5.696;2023-07-13T00:32:09;19.4;62.9
78455;SHT31;67751;51.986;5.696;2023-07-13T00:34:39;19.3;63.5
78455;SHT31;67751;51.986;5.696;2023-07-13T00:37:09;19.3;63.3
78455;SHT31;67751;51.986;5.696;2023-07-13T00:39:41;19.3;63.3
78455;SHT31;67751;51.986;5.696;2023-07-13T00:42:10;19.3;63.1
78455;SHT31;67751;51.986;5.696;2023-07-13T00:44:40;19.3;63.8
78455;SHT31;67751;51.986;5.696;2023-07-13T00:47:12;19.3;63.4
78455;SHT31;67751;51.986;5.696;2023-07-13T00:49:41;19.3;63.5
78455;SHT31;67751;51.986;5.696;2023-07-13T00:52:11;19.3;63.4
78455;SHT31;67751;51.986;5.696;2023-07-13T00:54:44;19.2;63.5
78455;SHT31;67751;51.986;5.696;2023-07-13T00:57:18;19.2;63.5
78455;SHT31;67751;51.986;5.696;2023-07-13T00:59:52;19.2;63.6
78455;SHT31;67751;51.986;5.696;2023-07-13T01:02:24;19.2;63.5
78455;SHT31;67751;51.986;5.696;2023-07-13T01:04:53;19.1;63.8
78455;SHT31;67751;51.986;5.696;2023-07-13T01:07:25;19.1;63.5
78455;SHT31;67751;51.986;5.696;2023-07-13T01:09:56;19.1;63.8
78455;SHT31;67751;51.986;5.696;2023-07-13T01:12:26;19.1;63.8
78455;SHT31;67751;51.986;5.696;2023-07-13T01:14:59;19.0;64.3
78455;SHT31;67751;51.986;5.696;2023-07-13T01:17:32;19.0;64.0
78455;SHT31;67751;51.986;5.696;2023-07-13T01:20:02;19.0;64.1
78455;SHT31;67751;51.986;5.696;2023-07-13T01:22:33;19.0;64.5
78455;SHT31;67751;51.986;5.696;2023-07-13T01:25:03;18.9;64.3
78455;SHT31;67751;51.986;5.696;2023-07-13T01:27:33;18.9;64.4
78455;SHT31;67751;51.986;5.696;2023-07-13T01:30:03;18.9;64.1
78455;SHT31;67751;51.986;5.696;2023-07-13T01:32:33;18.9;64.8
78455;SHT31;67751;51.986;5.696;2023-07-13T01:35:04;18.9;64.3
78455;SHT31;67751;51.986;5.696;2023-07-13T01:37:34;18.8;64.3
78455;SHT31;67751;51.986;5.696;2023-07-13T01:40:04;18.8;64.1
78455;SHT31;67751;51.986;5.696;2023-07-13T01:42:37;18.8;64.4
78455;SHT31;67751;51.986;5.696;2023-07-13T01:45:07;18.8;64.4
78455;SHT31;67751;51.986;5.696;2023-07-13T01:47:37;18.8;64.4
78455;SHT31;67751;51.986;5.696;2023-07-13T01:50:07;18.7;64.5
78455;SHT31;67751;51.986;5.696;2023-07-13T01:52:37;18.7;64.4
78455;SHT31;67751;51.986;5.696;2023-07-13T01:55:07;18.7;64.7
78455;SHT31;67751;51.986;5.696;2023-07-13T01:57:37;18.7;64.8
78455;SHT31;67751;51.986;5.696;2023-07-13T02:00:09;18.7;64.9
78455;SHT31;67751;51.986;5.696;2023-07-13T02:02:39;18.6;65.0
78455;SHT31;67751;51.986;5.696;2023-07-13T02:05:12;18.6;64.6
78455;SHT31;67751;51.986;5.696;2023-07-13T02:07:42;18.6;65.0
78455;SHT31;67751;51.986;5.696;2023-07-13T02:10:12;18.6;64.9
78455;SHT31;67751;51.986;5.696;2023-07-13T02:12:42;18.6;65.1
78455;SHT31;67751;51.986;5.696;2023-07-13T02:15:14;18.6;65.0
78455;SHT31;67751;51.986;5.696;2023-07-13T02:17:45;18.6;65.1
78455;SHT31;67751;51.986;5.696;2023-07-13T02:20:15;18.5;65.3
78455;SHT31;67751;51.986;5.696;2023-07-13T02:22:45;18.5;64.8
78455;SHT31;67751;51.986;5.696;2023-07-13T02:25:14;18.5;64.3
78455;SHT31;67751;51.986;5.696;2023-07-13T02:27:44;18.5;64.8
78455;SHT31;67751;51.986;5.696;2023-07-13T02:30:14;18.5;64.9
78455;SHT31;67751;51.986;5.696;2023-07-13T02:32:43;18.4;65.0
78455;SHT31;67751;51.986;5.696;2023-07-13T02:35:13;18.4;65.4
78455;SHT31;67751;51.986;5.696;2023-07-13T02:37:43;18.4;65.3
78455;SHT31;67751;51.986;5.696;2023-07-13T02:40:14;18.4;65.4
78455;SHT31;67751;51.986;5.696;2023-07-13T02:42:44;18.4;66.2
78455;SHT31;67751;51.986;5.696;2023-07-13T02:45:13;18.4;65.4
78455;SHT31;67751;51.986;5.696;2023-07-13T02:47:43;18.3;65.5
78455;SHT31;67751;51.986;5.696;2023-07-13T02:50:13;18.3;65.6
78455;SHT31;67751;51.986;5.696;2023-07-13T02:52:42;18.3;65.8
78455;SHT31;67751;51.986;5.696;2023-07-13T02:55:12;18.3;65.5
78455;SHT31;67751;51.986;5.696;2023-07-13T02:57:42;18.3;65.8
78455;SHT31;67751;51.986;5.696;2023-07-13T03:00:12;18.3;65.9
78455;SHT31;67751;51.986;5.696;2023-07-13T03:02:43;18.3;65.9
78455;SHT31;67751;51.986;5.696;2023-07-13T03:05:14;18.3;65.9
78455;SHT31;67751;51.986;5.696;2023-07-13T03:07:44;18.2;66.2
78455;SHT31;67751;51.986;5.696;2023-07-13T03:10:14;18.2;66.1
78455;SHT31;67751;51.986;5.696;2023-07-13T03:12:43;18.2;66.0
78455;SHT31;67751;51.986;5.696;2023-07-13T03:15:13;18.2;65.9
78455;SHT31;67751;51.986;5.696;2023-07-13T03:17:43;18.2;66.2
78455;SHT31;67751;51.986;5.696;2023-07-13T03:20:13;18.2;66.4
78455;SHT31;67751;51.986;5.696;2023-07-13T03:22:43;18.1;66.3
78455;SHT31;67751;51.986;5.696;2023-07-13T03:25:12;18.1;66.5
78455;SHT31;67751;51.986;5.696;2023-07-13T03:27:42;18.1;66.6
78455;SHT31;67751;51.986;5.696;2023-07-13T03:30:12;18.1;66.3
78455;SHT31;67751;51.986;5.696;2023-07-13T03:32:42;18.1;66.7
78455;SHT31;67751;51.986;5.696;2023-07-13T03:35:12;18.1;66.9
78455;SHT31;67751;51.986;5.696;2023-07-13T03:37:41;18.0;66.7
78455;SHT31;67751;51.986;5.696;2023-07-13T03:40:12;18.0;67.1
78455;SHT31;67751;51.986;5.696;2023-07-13T03:42:41;18.0;67.3
78455;SHT31;67751;51.986;5.696;2023-07-13T03:45:11;18.0;67.5
78455;SHT31;67751;51.986;5.696;2023-07-13T03:47:41;17.9;67.6
78455;SHT31;67751;51.986;5.696;2023-07-13T03:50:11;17.9;67.5
78455;SHT31;67751;51.986;5.696;2023-07-13T03:52:42;17.9;67.6
78455;SHT31;67751;51.986;5.696;2023-07-13T03:55:12;17.9;68.1
78455;SHT31;67751;51.986;5.696;2023-07-13T03:57:42;17.9;67.8
78455;SHT31;67751;51.986;5.696;2023-07-13T04:00:12;17.9;67.9
78455;SHT31;67751;51.986;5.696;2023-07-13T04:02:43;17.9;68.1
78455;SHT31;67751;51.986;5.696;2023-07-13T04:05:15;17.9;68.3
78455;SHT31;67751;51.986;5.696;2023-07-13T04:07:46;17.9;68.2
78455;SHT31;67751;51.986;5.696;2023-07-13T04:10:16;17.9;68.0
78455;SHT31;67751;51.986;5.696;2023-07-13T04:12:46;17.9;68.3
78455;SHT31;67751;51.986;5.696;2023-07-13T04:15:15;17.9;68.3
78455;SHT31;67751;51.986;5.696;2023-07-13T04:17:45;17.9;68.2
78455;SHT31;67751;51.986;5.696;2023-07-13T04:20:14;17.9;68.5
78455;SHT31;67751;51.986;5.696;2023-07-13T04:22:44;17.8;68.5
78455;SHT31;67751;51.986;5.696;2023-07-13T04:25:14;17.8;69.0
78455;SHT31;67751;51.986;5.696;2023-07-13T04:27:43;17.8;69.2
78455;SHT31;67751;51.986;5.696;2023-07-13T04:30:13;17.8;69.3
78455;SHT31;67751;51.986;5.696;2023-07-13T04:32:43;17.8;69.1
78455;SHT31;67751;51.986;5.696;2023-07-13T04:35:14;17.8;69.4
78455;SHT31;67751;51.986;5.696;2023-07-13T04:37:44;17.8;69.7
78455;SHT31;67751;51.986;5.696;2023-07-13T04:40:14;17.8;69.6
78455;SHT31;67751;51.986;5.696;2023-07-13T04:42:44;17.8;69.7
78455;SHT31;67751;51.986;5.696;2023-07-13T04:45:14;17.8;69.7
78455;SHT31;67751;51.986;5.696;2023-07-13T04:47:44;17.9;69.8
78455;SHT31;67751;51.986;5.696;2023-07-13T04:50:14;17.9;70.0
78455;SHT31;67751;51.986;5.696;2023-07-13T04:52:48;17.9;70.0
78455;SHT31;67751;51.986;5.696;2023-07-13T04:55:21;17.9;69.8
78455;SHT31;67751;51.986;5.696;2023-07-13T04:57:50;17.9;70.3
78455;SHT31;67751;51.986;5.696;2023-07-13T05:00:21;17.9;69.8
78455;SHT31;67751;51.986;5.696;2023-07-13T05:02:53;17.9;70.2
78455;SHT31;67751;51.986;5.696;2023-07-13T05:05:24;17.9;70.2
78455;SHT31;67751;51.986;5.696;2023-07-13T05:07:54;17.9;70.6
78455;SHT31;67751;51.986;5.696;2023-07-13T05:10:26;17.9;70.2
78455;SHT31;67751;51.986;5.696;2023-07-13T05:12:55;17.9;70.4
78455;SHT31;67751;51.986;5.696;2023-07-13T05:15:26;17.9;70.7
78455;SHT31;67751;51.986;5.696;2023-07-13T05:17:56;17.9;70.7
78455;SHT31;67751;51.986;5.696;2023-07-13T05:20:25;17.9;70.5
78455;SHT31;67751;51.986;5.696;2023-07-13T05:22:55;17.9;70.8
78455;SHT31;67751;51.986;5.696;2023-07-13T05:25:25;17.9;70.9
78455;SHT31;67751;51.986;5.696;2023-07-13T05:27:55;18.0;71.1
78455;SHT31;67751;51.986;5.696;2023-07-13T05:30:24;18.0;71.4
78455;SHT31;67751;51.986;5.696;2023-07-13T05:32:54;18.0;71.2
78455;SHT31;67751;51.986;5.696;2023-07-13T05:35:24;18.0;71.2
78455;SHT31;67751;51.986;5.696;2023-07-13T05:37:53;18.0;71.3
78455;SHT31;67751;51.986;5.696;2023-07-13T05:40:22;18.0;71.4
78455;SHT31;67751;51.986;5.696;2023-07-13T05:42:52;18.0;71.6
78455;SHT31;67751;51.986;5.696;2023-07-13T05:45:21;18.0;72.2
78455;SHT31;67751;51.986;5.696;2023-07-13T05:47:51;18.0;72.2
78455;SHT31;67751;51.986;5.696;2023-07-13T05:50:21;18.1;72.1
78455;SHT31;67751;51.986;5.696;2023-07-13T05:52:50;18.1;71.9
78455;SHT31;67751;51.986;5.696;2023-07-13T05:55:20;18.1;72.3
78455;SHT31;67751;51.986;5.696;2023-07-13T05:57:50;18.1;71.7
78455;SHT31;67751;51.986;5.696;2023-07-13T06:00:20;18.1;72.2
78455;SHT31;67751;51.986;5.696;2023-07-13T06:02:50;18.2;72.1
78455;SHT31;67751;51.986;5.696;2023-07-13T06:05:19;18.2;72.5
78455;SHT31;67751;51.986;5.696;2023-07-13T06:07:49;18.2;72.3
78455;SHT31;67751;51.986;5.696;2023-07-13T06:10:18;18.3;73.0
78455;SHT31;67751;51.986;5.696;2023-07-13T06:12:48;18.3;73.0
78455;SHT31;67751;51.986;5.696;2023-07-13T06:15:18;18.3;72.9
78455;SHT31;67751;51.986;5.696;2023-07-13T06:17:47;18.3;72.9
78455;SHT31;67751;51.986;5.696;2023-07-13T06:20:17;18.4;72.8
78455;SHT31;67751;51.986;5.696;2023-07-13T06:22:47;18.4;72.9
78455;SHT31;67751;51.986;5.696;2023-07-13T06:25:16;18.4;73.0
78455;SHT31;67751;51.986;5.696;2023-07-13T06:27:46;18.5;73.3
78455;SHT31;67751;51.986;5.696;2023-07-13T06:30:16;18.5;73.4
78455;SHT31;67751;51.986;5.696;2023-07-13T06:32:45;18.5;73.4
78455;SHT31;67751;51.986;5.696;2023-07-13T06:35:15;18.5;73.3
78455;SHT31;67751;51.986;5.696;2023-07-13T06:37:45;18.5;73.7
78455;SHT31;67751;51.986;5.696;2023-07-13T06:40:15;18.6;74.1
78455;SHT31;67751;51.986;5.696;2023-07-13T06:42:44;18.6;73.9
78455;SHT31;67751;51.986;5.696;2023-07-13T06:45:14;18.6;73.7
78455;SHT31;67751;51.986;5.696;2023-07-13T06:47:44;18.7;74.2
78455;SHT31;67751;51.986;5.696;2023-07-13T06:50:13;18.7;74.4
78455;SHT31;67751;51.986;5.696;2023-07-13T06:52:43;18.7;73.9
78455;SHT31;67751;51.986;5.696;2023-07-13T06:55:12;18.8;73.7
78455;SHT31;67751;51.986;5.696;2023-07-13T06:57:42;18.8;73.0
78455;SHT31;67751;51.986;5.696;2023-07-13T07:00:13;18.8;73.3
78455;SHT31;67751;51.986;5.696;2023-07-13T07:02:43;18.8;74.0
78455;SHT31;67751;51.986;5.696;2023-07-13T07:05:14;18.9;73.0
78455;SHT31;67751;51.986;5.696;2023-07-13T07:07:44;18.9;73.1
78455;SHT31;67751;51.986;5.696;2023-07-13T07:10:13;18.9;73.7
78455;SHT31;67751;51.986;5.696;2023-07-13T07:12:43;18.9;73.1
78455;SHT31;67751;51.986;5.696;2023-07-13T07:15:13;19.0;72.8
78455;SHT31;67751;51.986;5.696;2023-07-13T07:17:43;19.0;73.1
78455;SHT31;67751;51.986;5.696;2023-07-13T07:20:15;19.0;72.9
78455;SHT31;67751;51.986;5.696;2023-07-13T07:22:45;19.0;72.5
78455;SHT31;67751;51.986;5.696;2023-07-13T07:25:15;19.0;72.0
78455;SHT31;67751;51.986;5.696;2023-07-13T07:27:45;19.0;72.9
78455;SHT31;67751;51.986;5.696;2023-07-13T07:30:15;19.1;72.9
78455;SHT31;67751;51.986;5.696;2023-07-13T07:32:45;19.1;73.0
78455;SHT31;67751;51.986;5.696;2023-07-13T07:35:14;19.1;72.2
78455;SHT31;67751;51.986;5.696;2023-07-13T07:37:44;19.1;72.6
78455;SHT31;67751;51.986;5.696;2023-07-13T07:40:14;19.2;72.5
78455;SHT31;67751;51.986;5.696;2023-07-13T07:42:43;19.2;71.8
78455;SHT31;67751;51.986;5.696;2023-07-13T07:45:14;19.2;71.6
78455;SHT31;67751;51.986;5.696;2023-07-13T07:47:43;19.3;71.9
78455;SHT31;67751;51.986;5.696;2023-07-13T07:50:13;19.3;71.9
78455;SHT31;67751;51.986;5.696;2023-07-13T07:52:42;19.3;71.8
78455;SHT31;67751;51.986;5.696;2023-07-13T07:55:13;19.3;72.2
78455;SHT31;67751;51.986;5.696;2023-07-13T07:57:42;19.3;72.4
78455;SHT31;67751;51.986;5.696;2023-07-13T08:00:13;19.4;73.1
78455;SHT31;67751;51.986;5.696;2023-07-13T08:02:44;19.4;72.9
78455;SHT31;67751;51.986;5.696;2023-07-13T08:05:16;19.5;72.3
78455;SHT31;67751;51.986;5.696;2023-07-13T08:07:45;19.5;71.7
78455;SHT31;67751;51.986;5.696;2023-07-13T08:10:15;19.6;71.7
78455;SHT31;67751;51.986;5.696;2023-07-13T08:12:44;19.7;72.1
78455;SHT31;67751;51.986;5.696;2023-07-13T08:15:16;19.8;72.2
78455;SHT31;67751;51.986;5.696;2023-07-13T08:17:49;19.8;70.9
78455;SHT31;67751;51.986;5.696;2023-07-13T08:20:18;19.9;71.0
78455;SHT31;67751;51.986;5.696;2023-07-13T08:22:50;20.0;70.1
78455;SHT31;67751;51.986;5.696;2023-07-13T08:25:19;20.0;69.5
78455;SHT31;67751;51.986;5.696;2023-07-13T08:27:50;20.0;69.3
78455;SHT31;67751;51.986;5.696;2023-07-13T08:30:19;20.1;69.1
78455;SHT31;67751;51.986;5.696;2023-07-13T08:32:49;20.1;69.2
78455;SHT31;67751;51.986;5.696;2023-07-13T08:35:19;20.1;68.3
78455;SHT31;67751;51.986;5.696;2023-07-13T08:37:48;20.1;67.4
78455;SHT31;67751;51.986;5.696;2023-07-13T08:40:23;20.1;68.1
78455;SHT31;67751;51.986;5.696;2023-07-13T08:42:57;20.1;69.1
78455;SHT31;67751;51.986;5.696;2023-07-13T08:45:43;20.1;69.6
78455;SHT31;67751;51.986;5.696;2023-07-13T08:48:10;20.1;68.9
78455;SHT31;67751;51.986;5.696;2023-07-13T08:50:49;20.1;66.1
78455;SHT31;67751;51.986;5.696;2023-07-13T08:53:22;20.2;67.2
78455;SHT31;67751;51.986;5.696;2023-07-13T08:55:58;20.2;67.1
78455;SHT31;67751;51.986;5.696;2023-07-13T08:58:29;20.3;66.7
78455;SHT31;67751;51.986;5.696;2023-07-13T09:01:09;20.4;67.2
78455;SHT31;67751;51.986;5.696;2023-07-13T09:03:49;20.5;66.8
78455;SHT31;67751;51.986;5.696;2023-07-13T09:06:25;20.5;66.7
78455;SHT31;67751;51.986;5.696;2023-07-13T09:09:02;20.6;65.2
78455;SHT31;67751;51.986;5.696;2023-07-13T09:11:46;20.7;63.9
78455;SHT31;67751;51.986;5.696;2023-07-13T09:14:41;20.7;63.4
78455;SHT31;67751;51.986;5.696;2023-07-13T09:17:18;20.7;64.2
78455;SHT31;67751;51.986;5.696;2023-07-13T09:19:54;20.7;64.8
78455;SHT31;67751;51.986;5.696;2023-07-13T09:22:28;20.7;64.0
78455;SHT31;67751;51.986;5.696;2023-07-13T09:25:06;20.7;63.4
78455;SHT31;67751;51.986;5.696;2023-07-13T09:27:43;20.7;64.7
78455;SHT31;67751;51.986;5.696;2023-07-13T09:30:23;20.6;65.3
78455;SHT31;67751;51.986;5.696;2023-07-13T09:32:54;20.6;66.1
78455;SHT31;67751;51.986;5.696;2023-07-13T09:35:28;20.6;66.2
78455;SHT31;67751;51.986;5.696;2023-07-13T09:38:06;20.6;66.2
78455;SHT31;67751;51.986;5.696;2023-07-13T09:40:44;20.5;67.2
78455;SHT31;67751;51.986;5.696;2023-07-13T09:43:18;20.5;67.1
78455;SHT31;67751;51.986;5.696;2023-07-13T09:45:49;20.5;67.4
78455;SHT31;67751;51.986;5.696;2023-07-13T09:48:19;20.5;67.4
78455;SHT31;67751;51.986;5.696;2023-07-13T09:50:54;20.5;68.4
78455;SHT31;67751;51.986;5.696;2023-07-13T09:53:31;20.4;68.9
78455;SHT31;67751;51.986;5.696;2023-07-13T09:56:01;20.5;69.3
78455;SHT31;67751;51.986;5.696;2023-07-13T09:58:31;20.5;69.4
78455;SHT31;67751;51.986;5.696;2023-07-13T10:01:04;20.5;69.2
78455;SHT31;67751;51.986;5.696;2023-07-13T10:03:35;20.6;67.6
78455;SHT31;67751;51.986;5.696;2023-07-13T10:06:12;20.6;68.3
78455;SHT31;67751;51.986;5.696;2023-07-13T10:08:44;20.7;67.7
78455;SHT31;67751;51.986;5.696;2023-07-13T10:11:19;20.8;66.9
78455;SHT31;67751;51.986;5.696;2023-07-13T10:13:51;20.9;66.4
78455;SHT31;67751;51.986;5.696;2023-07-13T10:16:25;20.9;65.9
78455;SHT31;67751;51.986;5.696;2023-07-13T10:18:58;21.0;66.0
78455;SHT31;67751;51.986;5.696;2023-07-13T10:21:33;21.1;64.0
78455;SHT31;67751;51.986;5.696;2023-07-13T10:24:14;21.1;64.9
78455;SHT31;67751;51.986;5.696;2023-07-13T10:26:50;21.1;66.1
78455;SHT31;67751;51.986;5.696;2023-07-13T10:29:25;21.1;65.4
78455;SHT31;67751;51.986;5.696;2023-07-13T10:31:55;21.1;65.3
78455;SHT31;67751;51.986;5.696;2023-07-13T10:34:27;21.2;65.2
78455;SHT31;67751;51.986;5.696;2023-07-13T10:37:00;21.2;65.9
78455;SHT31;67751;51.986;5.696;2023-07-13T10:39:34;21.2;66.1
78455;SHT31;67751;51.986;5.696;2023-07-13T10:42:06;21.2;65.4
78455;SHT31;67751;51.986;5.696;2023-07-13T10:44:40;21.3;66.2
78455;SHT31;67751;51.986;5.696;2023-07-13T10:47:15;21.3;64.8
78455;SHT31;67751;51.986;5.696;2023-07-13T10:49:47;21.3;61.7
78455;SHT31;67751;51.986;5.696;2023-07-13T10:52:45;21.3;62.6
78455;SHT31;67751;51.986;5.696;2023-07-13T10:55:36;21.3;61.5
78455;SHT31;67751;51.986;5.696;2023-07-13T10:58:18;21.3;60.3
78455;SHT31;67751;51.986;5.696;2023-07-13T11:00:56;21.3;61.9
78455;SHT31;67751;51.986;5.696;2023-07-13T11:03:30;21.3;62.0
78455;SHT31;67751;51.986;5.696;2023-07-13T11:06:10;21.3;63.1
78455;SHT31;67751;51.986;5.696;2023-07-13T11:08:53;21.3;65.5
78455;SHT31;67751;51.986;5.696;2023-07-13T11:11:38;21.3;66.4
78455;SHT31;67751;51.986;5.696;2023-07-13T11:14:27;21.3;66.6
78455;SHT31;67751;51.986;5.696;2023-07-13T11:16:57;21.2;67.3
78455;SHT31;67751;51.986;5.696;2023-07-13T11:22:16;21.2;67.0
78455;SHT31;67751;51.986;5.696;2023-07-13T11:24:53;21.2;66.7
78455;SHT31;67751;51.986;5.696;2023-07-13T11:27:35;21.3;66.1
78455;SHT31;67751;51.986;5.696;2023-07-13T11:30:23;21.3;64.9
78455;SHT31;67751;51.986;5.696;2023-07-13T11:33:08;21.3;64.7
78455;SHT31;67751;51.986;5.696;2023-07-13T11:35:45;21.4;64.5
78455;SHT31;67751;51.986;5.696;2023-07-13T11:38:19;21.5;64.6
78455;SHT31;67751;51.986;5.696;2023-07-13T11:40:54;21.5;64.7
78455;SHT31;67751;51.986;5.696;2023-07-13T11:43:24;21.6;65.3
78455;SHT31;67751;51.986;5.696;2023-07-13T11:45:54;21.7;63.1
78455;SHT31;67751;51.986;5.696;2023-07-13T11:48:26;21.7;62.4
78455;SHT31;67751;51.986;5.696;2023-07-13T11:51:01;21.8;63.9
78455;SHT31;67751;51.986;5.696;2023-07-13T11:53:40;21.8;63.7
78455;SHT31;67751;51.986;5.696;2023-07-13T11:56:10;21.8;63.2
78455;SHT31;67751;51.986;5.696;2023-07-13T11:58:41;21.8;64.7
78455;SHT31;67751;51.986;5.696;2023-07-13T12:01:20;21.9;63.5
78455;SHT31;67751;51.986;5.696;2023-07-13T12:03:52;21.9;64.0
78455;SHT31;67751;51.986;5.696;2023-07-13T12:06:26;21.9;61.7
78455;SHT31;67751;51.986;5.696;2023-07-13T12:09:02;22.0;60.2
78455;SHT31;67751;51.986;5.696;2023-07-13T12:11:35;22.0;60.0
78455;SHT31;67751;51.986;5.696;2023-07-13T12:14:06;22.0;59.1
78455;SHT31;67751;51.986;5.696;2023-07-13T12:16:35;22.1;58.5
78455;SHT31;67751;51.986;5.696;2023-07-13T12:19:20;22.1;58.2
78455;SHT31;67751;51.986;5.696;2023-07-13T12:21:52;22.2;58.6
78455;SHT31;67751;51.986;5.696;2023-07-13T12:24:24;22.2;60.1
78455;SHT31;67751;51.986;5.696;2023-07-13T12:26:58;22.2;59.6
78455;SHT31;67751;51.986;5.696;2023-07-13T12:29:29;22.2;60.5
78455;SHT31;67751;51.986;5.696;2023-07-13T12:32:01;22.2;61.7
78455;SHT31;67751;51.986;5.696;2023-07-13T12:34:31;22.3;60.9
78455;SHT31;67751;51.986;5.696;2023-07-13T12:37:02;22.3;60.3
78455;SHT31;67751;51.986;5.696;2023-07-13T12:39:35;22.3;57.3
78455;SHT31;67751;51.986;5.696;2023-07-13T12:42:21;22.4;56.6
78455;SHT31;67751;51.986;5.696;2023-07-13T12:44:59;22.4;56.4
78455;SHT31;67751;51.986;5.696;2023-07-13T12:47:30;22.4;57.0
78455;SHT31;67751;51.986;5.696;2023-07-13T12:50:16;22.4;56.2
78455;SHT31;67751;51.986;5.696;2023-07-13T12:52:51;22.5;56.8
78455;SHT31;67751;51.986;5.696;2023-07-13T12:55:22;22.5;55.1
78455;SHT31;67751;51.986;5.696;2023-07-13T12:57:54;22.5;55.5
78455;SHT31;67751;51.986;5.696;2023-07-13T13:00:28;22.6;55.5
78455;SHT31;67751;51.986;5.696;2023-07-13T13:03:07;22.6;55.0
78455;SHT31;67751;51.986;5.696;2023-07-13T13:05:41;22.6;52.6
78455;SHT31;67751;51.986;5.696;2023-07-13T13:08:13;22.7;55.9
78455;SHT31;67751;51.986;5.696;2023-07-13T13:10:43;22.7;55.1
78455;SHT31;67751;51.986;5.696;2023-07-13T13:13:13;22.7;55.5
78455;SHT31;67751;51.986;5.696;2023-07-13T13:15:42;22.8;54.7
78455;SHT31;67751;51.986;5.696;2023-07-13T13:18:17;22.8;53.5
78455;SHT31;67751;51.986;5.696;2023-07-13T13:20:49;22.8;51.8
78455;SHT31;67751;51.986;5.696;2023-07-13T13:23:20;22.8;54.3
78455;SHT31;67751;51.986;5.696;2023-07-13T13:25:51;22.8;53.1
78455;SHT31;67751;51.986;5.696;2023-07-13T13:28:21;22.8;52.6
78455;SHT31;67751;51.986;5.696;2023-07-13T13:30:51;22.9;53.4
78455;SHT31;67751;51.986;5.696;2023-07-13T13:33:24;22.9;54.0
78455;SHT31;67751;51.986;5.696;2023-07-13T13:35:53;22.9;54.3
78455;SHT31;67751;51.986;5.696;2023-07-13T13:38:26;22.9;55.5
78455;SHT31;67751;51.986;5.696;2023-07-13T13:40:56;22.9;52.4
78455;SHT31;67751;51.986;5.696;2023-07-13T13:43:26;23.0;53.7
78455;SHT31;67751;51.986;5.696;2023-07-13T13:45:58;23.0;52.4
78455;SHT31;67751;51.986;5.696;2023-07-13T13:48:31;23.0;52.2
78455;SHT31;67751;51.986;5.696;2023-07-13T13:51:14;23.0;53.5
78455;SHT31;67751;51.986;5.696;2023-07-13T13:53:45;23.0;53.1
78455;SHT31;67751;51.986;5.696;2023-07-13T13:56:18;23.0;50.8
78455;SHT31;67751;51.986;5.696;2023-07-13T13:58:48;23.1;50.7
78455;SHT31;67751;51.986;5.696;2023-07-13T14:01:20;23.1;51.7
78455;SHT31;67751;51.986;5.696;2023-07-13T14:03:51;23.1;52.3
78455;SHT31;67751;51.986;5.696;2023-07-13T14:06:21;23.1;53.6
78455;SHT31;67751;51.986;5.696;2023-07-13T14:08:51;23.1;54.6
78455;SHT31;67751;51.986;5.696;2023-07-13T14:11:23;23.1;52.8
78455;SHT31;67751;51.986;5.696;2023-07-13T14:13:55;23.1;52.8
78455;SHT31;67751;51.986;5.696;2023-07-13T14:16:28;23.0;52.7
78455;SHT31;67751;51.986;5.696;2023-07-13T14:18:59;23.0;53.3
78455;SHT31;67751;51.986;5.696;2023-07-13T14:21:29;23.0;51.5
78455;SHT31;67751;51.986;5.696;2023-07-13T14:23:59;23.0;51.7
78455;SHT31;67751;51.986;5.696;2023-07-13T14:26:36;23.0;52.9
78455;SHT31;67751;51.986;5.696;2023-07-13T14:29:12;23.0;51.4
78455;SHT31;67751;51.986;5.696;2023-07-13T14:31:44;23.1;53.2
78455;SHT31;67751;51.986;5.696;2023-07-13T14:34:16;23.1;52.3
78455;SHT31;67751;51.986;5.696;2023-07-13T14:36:48;23.1;53.2
78455;SHT31;67751;51.986;5.696;2023-07-13T14:39:20;23.1;52.1
78455;SHT31;67751;51.986;5.696;2023-07-13T14:41:53;23.1;52.0
78455;SHT31;67751;51.986;5.696;2023-07-13T14:44:27;23.1;50.8
78455;SHT31;67751;51.986;5.696;2023-07-13T14:47:01;23.1;51.5
78455;SHT31;67751;51.986;5.696;2023-07-13T14:49:33;23.1;51.8
78455;SHT31;67751;51.986;5.696;2023-07-13T14:52:13;23.0;53.1
78455;SHT31;67751;51.986;5.696;2023-07-13T14:54:43;23.0;52.3
78455;SHT31;67751;51.986;5.696;2023-07-13T14:57:15;23.0;52.5
78455;SHT31;67751;51.986;5.696;2023-07-13T14:59:46;23.0;53.3
78455;SHT31;67751;51.986;5.696;2023-07-13T15:02:21;23.0;52.3
78455;SHT31;67751;51.986;5.696;2023-07-13T15:04:53;23.0;51.7
78455;SHT31;67751;51.986;5.696;2023-07-13T15:07:23;22.9;52.3
78455;SHT31;67751;51.986;5.696;2023-07-13T15:09:53;22.9;52.4
78455;SHT31;67751;51.986;5.696;2023-07-13T15:12:23;22.9;51.2
78455;SHT31;67751;51.986;5.696;2023-07-13T15:14:52;22.9;51.3
78455;SHT31;67751;51.986;5.696;2023-07-13T15:17:31;22.9;49.9
78455;SHT31;67751;51.986;5.696;2023-07-13T15:20:02;22.9;52.3
78455;SHT31;67751;51.986;5.696;2023-07-13T15:22:33;22.8;51.0
78455;SHT31;67751;51.986;5.696;2023-07-13T15:25:10;22.8;51.7
78455;SHT31;67751;51.986;5.696;2023-07-13T15:27:41;22.8;51.6
78455;SHT31;67751;51.986;5.696;2023-07-13T15:30:11;22.8;51.8
78455;SHT31;67751;51.986;5.696;2023-07-13T15:32:42;22.8;52.7
78455;SHT31;67751;51.986;5.696;2023-07-13T15:35:17;22.8;53.1
78455;SHT31;67751;51.986;5.696;2023-07-13T15:37:47;22.8;52.5
78455;SHT31;67751;51.986;5.696;2023-07-13T15:40:18;22.8;52.2
78455;SHT31;67751;51.986;5.696;2023-07-13T15:42:49;22.8;50.7
78455;SHT31;67751;51.986;5.696;2023-07-13T15:45:22;22.8;51.7
78455;SHT31;67751;51.986;5.696;2023-07-13T15:47:52;22.8;51.1
78455;SHT31;67751;51.986;5.696;2023-07-13T15:50:24;22.8;52.4
78455;SHT31;67751;51.986;5.696;2023-07-13T15:52:58;22.8;51.8
78455;SHT31;67751;51.986;5.696;2023-07-13T15:55:30;22.7;52.7
78455;SHT31;67751;51.986;5.696;2023-07-13T15:57:59;22.7;53.1
78455;SHT31;67751;51.986;5.696;2023-07-13T16:00:29;22.7;54.7
78455;SHT31;67751;51.986;5.696;2023-07-13T16:02:59;22.7;55.2
78455;SHT31;67751;51.986;5.696;2023-07-13T16:05:29;22.7;55.5
78455;SHT31;67751;51.986;5.696;2023-07-13T16:07:59;22.7;55.2
78455;SHT31;67751;51.986;5.696;2023-07-13T16:10:34;22.7;54.5
78455;SHT31;67751;51.986;5.696;2023-07-13T16:13:04;22.7;55.2
78455;SHT31;67751;51.986;5.696;2023-07-13T16:15:34;22.7;54.4
78455;SHT31;67751;51.986;5.696;2023-07-13T16:18:04;22.7;53.9
78455;SHT31;67751;51.986;5.696;2023-07-13T16:20:33;22.7;52.8
78455;SHT31;67751;51.986;5.696;2023-07-13T16:23:05;22.7;52.5
78455;SHT31;67751;51.986;5.696;2023-07-13T16:25:35;22.7;53.2
78455;SHT31;67751;51.986;5.696;2023-07-13T16:28:05;22.8;53.6
78455;SHT31;67751;51.986;5.696;2023-07-13T16:30:35;22.8;52.3
78455;SHT31;67751;51.986;5.696;2023-07-13T16:33:05;22.8;52.4
78455;SHT31;67751;51.986;5.696;2023-07-13T16:35:38;22.8;52.4